Mentasta Lake, Alaska
Current Conditions -  °F | °C
As of 1:53 AM on Friday 24 Oct 2014 (Local Time) from PAOR Reporting Station
Overcast Overcast  
Wind Chill: 22°   Ceiling: 3000
Heat Index: 22°   Visibility: 10mi
Dew Point: 18°   Wind: 3mph
Humidity: 85%   Direction: NA
Pressure: 29.72"   Gusts: NA
Location:  63.798°N, 142.321°W
Report Text: PAOR 240953Z VRB03KT 10SM BKN030 OVC038 M06/M08 A2972 RMK AO2 SLP100 T10561078
Loading
Personal Weather Stations






























Interactive Weather Map
Tropical Storm Tracking
New forecast layout! Learn more

10-Day Weather Forecast

Advertisements
Track Severe Weather on mobile